sensor_id;sensor_type;location;lat;lon;timestamp;temperature;humidity
12452;DHT22;6291;48.924;12.204;2022-09-21T00:01:51;6.90;99.90
12452;DHT22;6291;48.924;12.204;2022-09-21T00:06:54;6.80;99.90
12452;DHT22;6291;48.924;12.204;2022-09-21T00:11:57;6.80;99.90
12452;DHT22;6291;48.924;12.204;2022-09-21T00:17:02;6.80;99.90
12452;DHT22;6291;48.924;12.204;2022-09-21T00:22:05;6.90;99.90
12452;DHT22;6291;48.924;12.204;2022-09-21T00:27:09;6.90;99.90
12452;DHT22;6291;48.924;12.204;2022-09-21T00:32:13;6.60;99.90
12452;DHT22;6291;48.924;12.204;2022-09-21T00:37:18;6.30;99.90
12452;DHT22;6291;48.924;12.204;2022-09-21T00:42:24;6.10;99.90
12452;DHT22;6291;48.924;12.204;2022-09-21T00:47:32;6.00;99.90
12452;DHT22;6291;48.924;12.204;2022-09-21T00:52:39;6.10;99.90
12452;DHT22;6291;48.924;12.204;2022-09-21T00:57:43;6.30;99.90
12452;DHT22;6291;48.924;12.204;2022-09-21T01:02:49;6.40;99.90
12452;DHT22;6291;48.924;12.204;2022-09-21T01:07:53;6.30;99.90
12452;DHT22;6291;48.924;12.204;2022-09-21T01:13:07;6.20;99.90
12452;DHT22;6291;48.924;12.204;2022-09-21T01:18:19;6.10;99.90
12452;DHT22;6291;48.924;12.204;2022-09-21T01:23:55;6.10;99.90
12452;DHT22;6291;48.924;12.204;2022-09-21T01:29:12;6.00;99.90
12452;DHT22;6291;48.924;12.204;2022-09-21T01:34:24;6.10;99.90
12452;DHT22;6291;48.924;12.204;2022-09-21T01:39:29;4.30;99.90
12452;DHT22;6291;48.924;12.204;2022-09-21T01:44:38;6.30;99.90
12452;DHT22;6291;48.924;12.204;2022-09-21T01:49:46;6.20;99.90
12452;DHT22;6291;48.924;12.204;2022-09-21T01:54:53;6.10;99.90
12452;DHT22;6291;48.924;12.204;2022-09-21T01:59:59;6.10;99.90
12452;DHT22;6291;48.924;12.204;2022-09-21T02:05:12;5.90;99.90
12452;DHT22;6291;48.924;12.204;2022-09-21T02:10:21;5.90;99.90
12452;DHT22;6291;48.924;12.204;2022-09-21T02:15:31;6.10;99.90
12452;DHT22;6291;48.924;12.204;2022-09-21T02:20:39;6.10;99.90
12452;DHT22;6291;48.924;12.204;2022-09-21T02:25:51;6.00;99.90
12452;DHT22;6291;48.924;12.204;2022-09-21T02:31:00;5.70;99.90
12452;DHT22;6291;48.924;12.204;2022-09-21T02:36:07;5.60;99.90
12452;DHT22;6291;48.924;12.204;2022-09-21T02:41:16;5.50;99.90
12452;DHT22;6291;48.924;12.204;2022-09-21T02:46:30;5.60;99.90
12452;DHT22;6291;48.924;12.204;2022-09-21T02:51:37;5.60;99.90
12452;DHT22;6291;48.924;12.204;2022-09-21T02:56:43;5.50;99.90
12452;DHT22;6291;48.924;12.204;2022-09-21T03:01:49;5.70;99.90
12452;DHT22;6291;48.924;12.204;2022-09-21T03:06:52;5.60;99.90
12452;DHT22;6291;48.924;12.204;2022-09-21T03:11:55;5.60;99.90
12452;DHT22;6291;48.924;12.204;2022-09-21T03:17:00;5.70;99.90
12452;DHT22;6291;48.924;12.204;2022-09-21T03:22:03;5.60;99.90
12452;DHT22;6291;48.924;12.204;2022-09-21T03:27:06;5.50;99.90
12452;DHT22;6291;48.924;12.204;2022-09-21T03:32:11;5.50;99.90
12452;DHT22;6291;48.924;12.204;2022-09-21T03:37:15;5.50;99.90
12452;DHT22;6291;48.924;12.204;2022-09-21T03:42:18;6.10;99.90
12452;DHT22;6291;48.924;12.204;2022-09-21T03:47:23;5.20;99.90
12452;DHT22;6291;48.924;12.204;2022-09-21T03:52:26;5.80;99.90
12452;DHT22;6291;48.924;12.204;2022-09-21T03:57:29;5.20;99.90
12452;DHT22;6291;48.924;12.204;2022-09-21T04:02:34;5.70;99.90
12452;DHT22;6291;48.924;12.204;2022-09-21T04:07:38;5.60;99.90
12452;DHT22;6291;48.924;12.204;2022-09-21T04:12:42;5.00;99.90
12452;DHT22;6291;48.924;12.204;2022-09-21T04:17:50;5.10;99.90
12452;DHT22;6291;48.924;12.204;2022-09-21T04:22:54;5.20;99.90
12452;DHT22;6291;48.924;12.204;2022-09-21T04:27:57;5.10;99.90
12452;DHT22;6291;48.924;12.204;2022-09-21T04:33:01;5.10;99.90
12452;DHT22;6291;48.924;12.204;2022-09-21T04:38:05;5.40;99.90
12452;DHT22;6291;48.924;12.204;2022-09-21T04:43:08;5.10;99.90
12452;DHT22;6291;48.924;12.204;2022-09-21T04:48:12;5.10;99.90
12452;DHT22;6291;48.924;12.204;2022-09-21T04:53:16;5.20;99.90
12452;DHT22;6291;48.924;12.204;2022-09-21T04:58:19;5.40;99.90
12452;DHT22;6291;48.924;12.204;2022-09-21T05:03:27;4.90;99.90
12452;DHT22;6291;48.924;12.204;2022-09-21T05:08:30;5.00;99.90
12452;DHT22;6291;48.924;12.204;2022-09-21T05:13:51;5.20;99.90
12452;DHT22;6291;48.924;12.204;2022-09-21T05:18:56;5.10;99.90
12452;DHT22;6291;48.924;12.204;2022-09-21T05:23:59;5.80;99.90
12452;DHT22;6291;48.924;12.204;2022-09-21T05:29:03;5.10;99.90
12452;DHT22;6291;48.924;12.204;2022-09-21T05:34:18;5.20;99.90
12452;DHT22;6291;48.924;12.204;2022-09-21T05:39:23;5.40;99.90
12452;DHT22;6291;48.924;12.204;2022-09-21T05:44:27;5.80;99.90
12452;DHT22;6291;48.924;12.204;2022-09-21T05:49:45;5.90;99.90
12452;DHT22;6291;48.924;12.204;2022-09-21T05:54:59;6.40;99.90
12452;DHT22;6291;48.924;12.204;2022-09-21T06:00:11;6.20;99.90
12452;DHT22;6291;48.924;12.204;2022-09-21T06:05:19;6.30;99.90
12452;DHT22;6291;48.924;12.204;2022-09-21T06:10:22;5.60;99.90
12452;DHT22;6291;48.924;12.204;2022-09-21T06:15:26;5.90;99.90
12452;DHT22;6291;48.924;12.204;2022-09-21T06:20:30;6.20;99.90
12452;DHT22;6291;48.924;12.204;2022-09-21T06:25:34;6.40;99.90
12452;DHT22;6291;48.924;12.204;2022-09-21T06:30:38;6.40;99.90
12452;DHT22;6291;48.924;12.204;2022-09-21T06:35:51;6.60;99.90
12452;DHT22;6291;48.924;12.204;2022-09-21T06:40:59;6.00;99.90
12452;DHT22;6291;48.924;12.204;2022-09-21T06:46:03;6.70;99.90
12452;DHT22;6291;48.924;12.204;2022-09-21T06:51:08;6.10;99.90
12452;DHT22;6291;48.924;12.204;2022-09-21T06:56:12;6.30;99.90
12452;DHT22;6291;48.924;12.204;2022-09-21T07:01:15;6.10;99.90
12452;DHT22;6291;48.924;12.204;2022-09-21T07:06:21;7.30;99.90
12452;DHT22;6291;48.924;12.204;2022-09-21T07:11:24;7.30;99.90
12452;DHT22;6291;48.924;12.204;2022-09-21T07:16:28;7.60;99.90
12452;DHT22;6291;48.924;12.204;2022-09-21T07:21:33;8.00;99.90
12452;DHT22;6291;48.924;12.204;2022-09-21T07:26:36;8.10;99.90
12452;DHT22;6291;48.924;12.204;2022-09-21T07:31:42;8.20;99.90
12452;DHT22;6291;48.924;12.204;2022-09-21T07:36:47;8.20;99.90
12452;DHT22;6291;48.924;12.204;2022-09-21T07:41:50;7.50;99.90
12452;DHT22;6291;48.924;12.204;2022-09-21T07:46:54;8.00;99.90
12452;DHT22;6291;48.924;12.204;2022-09-21T07:51:58;8.60;99.90
12452;DHT22;6291;48.924;12.204;2022-09-21T07:57:11;8.90;99.90
12452;DHT22;6291;48.924;12.204;2022-09-21T08:02:32;9.20;99.90
12452;DHT22;6291;48.924;12.204;2022-09-21T08:07:36;9.30;99.90
12452;DHT22;6291;48.924;12.204;2022-09-21T08:12:40;10.20;99.90
12452;DHT22;6291;48.924;12.204;2022-09-21T08:17:45;9.90;99.90
12452;DHT22;6291;48.924;12.204;2022-09-21T08:22:49;10.60;99.90
12452;DHT22;6291;48.924;12.204;2022-09-21T08:27:56;10.60;99.90
12452;DHT22;6291;48.924;12.204;2022-09-21T08:33:00;9.40;99.90
12452;DHT22;6291;48.924;12.204;2022-09-21T08:38:05;8.40;99.90
12452;DHT22;6291;48.924;12.204;2022-09-21T08:43:11;10.70;99.90
12452;DHT22;6291;48.924;12.204;2022-09-21T08:48:19;9.30;99.90
12452;DHT22;6291;48.924;12.204;2022-09-21T08:53:33;9.70;99.90
12452;DHT22;6291;48.924;12.204;2022-09-21T08:58:38;10.60;99.90
12452;DHT22;6291;48.924;12.204;2022-09-21T09:03:54;10.90;99.90
12452;DHT22;6291;48.924;12.204;2022-09-21T09:09:25;10.60;99.90
12452;DHT22;6291;48.924;12.204;2022-09-21T09:14:53;10.40;99.90
12452;DHT22;6291;48.924;12.204;2022-09-21T09:20:03;11.60;99.90
12452;DHT22;6291;48.924;12.204;2022-09-21T09:25:16;12.20;99.90
12452;DHT22;6291;48.924;12.204;2022-09-21T09:30:23;14.60;99.90
12452;DHT22;6291;48.924;12.204;2022-09-21T09:35:32;16.00;99.10
12452;DHT22;6291;48.924;12.204;2022-09-21T09:40:53;17.80;94.60
12452;DHT22;6291;48.924;12.204;2022-09-21T09:46:04;18.70;90.40
12452;DHT22;6291;48.924;12.204;2022-09-21T09:51:14;19.00;89.20
12452;DHT22;6291;48.924;12.204;2022-09-21T09:56:18;19.40;87.20
12452;DHT22;6291;48.924;12.204;2022-09-21T10:01:45;19.50;82.70
12452;DHT22;6291;48.924;12.204;2022-09-21T10:07:00;20.10;81.50
12452;DHT22;6291;48.924;12.204;2022-09-21T10:12:23;20.60;75.40
12452;DHT22;6291;48.924;12.204;2022-09-21T10:17:28;21.40;69.50
12452;DHT22;6291;48.924;12.204;2022-09-21T10:22:31;21.00;70.30
12452;DHT22;6291;48.924;12.204;2022-09-21T10:27:36;21.30;65.70
12452;DHT22;6291;48.924;12.204;2022-09-21T10:32:54;19.00;77.70
12452;DHT22;6291;48.924;12.204;2022-09-21T10:38:19;20.90;70.20
12452;DHT22;6291;48.924;12.204;2022-09-21T10:43:32;20.40;67.70
12452;DHT22;6291;48.924;12.204;2022-09-21T10:48:44;19.60;68.80
12452;DHT22;6291;48.924;12.204;2022-09-21T10:53:48;21.00;64.00
12452;DHT22;6291;48.924;12.204;2022-09-21T10:59:21;20.90;67.60
12452;DHT22;6291;48.924;12.204;2022-09-21T11:04:39;19.00;72.10
12452;DHT22;6291;48.924;12.204;2022-09-21T11:09:47;20.50;67.30
12452;DHT22;6291;48.924;12.204;2022-09-21T11:14:59;21.50;62.60
12452;DHT22;6291;48.924;12.204;2022-09-21T11:20:13;21.00;62.90
12452;DHT22;6291;48.924;12.204;2022-09-21T11:25:25;21.80;62.70
12452;DHT22;6291;48.924;12.204;2022-09-21T11:31:02;23.20;60.00
12452;DHT22;6291;48.924;12.204;2022-09-21T11:36:12;22.40;56.70
12452;DHT22;6291;48.924;12.204;2022-09-21T11:41:30;19.80;64.70
12452;DHT22;6291;48.924;12.204;2022-09-21T11:46:43;19.20;65.90
12452;DHT22;6291;48.924;12.204;2022-09-21T11:51:59;23.10;67.70
12452;DHT22;6291;48.924;12.204;2022-09-21T11:57:08;18.30;65.80
12452;DHT22;6291;48.924;12.204;2022-09-21T12:02:36;17.70;66.50
12452;DHT22;6291;48.924;12.204;2022-09-21T12:07:58;18.10;65.30
12452;DHT22;6291;48.924;12.204;2022-09-21T12:13:10;16.40;72.80
12452;DHT22;6291;48.924;12.204;2022-09-21T12:18:32;16.90;71.10
12452;DHT22;6291;48.924;12.204;2022-09-21T12:23:42;17.20;72.40
12452;DHT22;6291;48.924;12.204;2022-09-21T12:28:49;20.00;62.50
12452;DHT22;6291;48.924;12.204;2022-09-21T12:33:58;19.80;64.80
12452;DHT22;6291;48.924;12.204;2022-09-21T12:39:09;21.10;63.80
12452;DHT22;6291;48.924;12.204;2022-09-21T12:44:19;23.60;56.60
12452;DHT22;6291;48.924;12.204;2022-09-21T12:49:29;24.50;51.90
12452;DHT22;6291;48.924;12.204;2022-09-21T12:54:41;24.90;49.30
12452;DHT22;6291;48.924;12.204;2022-09-21T12:59:55;26.40;46.50
12452;DHT22;6291;48.924;12.204;2022-09-21T13:05:07;27.80;40.80
12452;DHT22;6291;48.924;12.204;2022-09-21T13:10:17;26.30;44.10
12452;DHT22;6291;48.924;12.204;2022-09-21T13:15:24;23.50;49.10
12452;DHT22;6291;48.924;12.204;2022-09-21T13:20:36;23.70;49.30
12452;DHT22;6291;48.924;12.204;2022-09-21T13:25:40;23.30;44.90
12452;DHT22;6291;48.924;12.204;2022-09-21T13:30:45;21.90;51.50
12452;DHT22;6291;48.924;12.204;2022-09-21T13:35:59;21.60;50.50
12452;DHT22;6291;48.924;12.204;2022-09-21T13:41:17;20.10;54.40
12452;DHT22;6291;48.924;12.204;2022-09-21T13:46:56;21.00;55.40
12452;DHT22;6291;48.924;12.204;2022-09-21T13:52:04;23.30;44.20
12452;DHT22;6291;48.924;12.204;2022-09-21T13:57:22;22.60;47.00
12452;DHT22;6291;48.924;12.204;2022-09-21T14:02:32;21.30;50.60
12452;DHT22;6291;48.924;12.204;2022-09-21T14:07:37;22.50;49.70
12452;DHT22;6291;48.924;12.204;2022-09-21T14:12:42;23.60;47.10
12452;DHT22;6291;48.924;12.204;2022-09-21T14:18:18;24.30;46.40
12452;DHT22;6291;48.924;12.204;2022-09-21T14:23:29;26.20;40.80
12452;DHT22;6291;48.924;12.204;2022-09-21T14:28:37;26.10;38.90
12452;DHT22;6291;48.924;12.204;2022-09-21T14:33:44;26.80;37.90
12452;DHT22;6291;48.924;12.204;2022-09-21T14:38:52;26.20;37.80
12452;DHT22;6291;48.924;12.204;2022-09-21T14:43:56;26.10;36.20
12452;DHT22;6291;48.924;12.204;2022-09-21T14:49:12;21.60;45.80
12452;DHT22;6291;48.924;12.204;2022-09-21T14:54:33;19.80;49.60
12452;DHT22;6291;48.924;12.204;2022-09-21T14:59:55;19.10;53.20
12452;DHT22;6291;48.924;12.204;2022-09-21T15:05:17;19.70;53.40
12452;DHT22;6291;48.924;12.204;2022-09-21T15:10:28;23.20;46.00
12452;DHT22;6291;48.924;12.204;2022-09-21T15:21:24;24.50;43.90
12452;DHT22;6291;48.924;12.204;2022-09-21T15:26:32;25.10;42.80
12452;DHT22;6291;48.924;12.204;2022-09-21T15:31:36;25.40;42.40
12452;DHT22;6291;48.924;12.204;2022-09-21T15:36:41;25.50;41.40
12452;DHT22;6291;48.924;12.204;2022-09-21T15:41:47;25.00;42.20
12452;DHT22;6291;48.924;12.204;2022-09-21T15:46:54;25.40;41.40
12452;DHT22;6291;48.924;12.204;2022-09-21T15:52:05;25.10;42.20
12452;DHT22;6291;48.924;12.204;2022-09-21T15:57:29;25.80;39.40
12452;DHT22;6291;48.924;12.204;2022-09-21T16:02:39;25.50;39.60
12452;DHT22;6291;48.924;12.204;2022-09-21T16:07:45;22.10;45.50
12452;DHT22;6291;48.924;12.204;2022-09-21T16:12:50;19.50;52.90
12452;DHT22;6291;48.924;12.204;2022-09-21T16:17:58;18.00;55.00
12452;DHT22;6291;48.924;12.204;2022-09-21T16:23:05;16.80;56.70
12452;DHT22;6291;48.924;12.204;2022-09-21T16:28:29;16.20;58.00
12452;DHT22;6291;48.924;12.204;2022-09-21T16:33:41;15.80;58.70
12452;DHT22;6291;48.924;12.204;2022-09-21T16:38:45;15.60;59.50
12452;DHT22;6291;48.924;12.204;2022-09-21T16:43:50;15.30;63.00
12452;DHT22;6291;48.924;12.204;2022-09-21T16:48:58;14.90;66.00
12452;DHT22;6291;48.924;12.204;2022-09-21T16:54:01;14.50;67.90
12452;DHT22;6291;48.924;12.204;2022-09-21T16:59:14;14.20;69.80
12452;DHT22;6291;48.924;12.204;2022-09-21T17:04:23;14.10;71.50
12452;DHT22;6291;48.924;12.204;2022-09-21T17:09:30;13.80;73.40
12452;DHT22;6291;48.924;12.204;2022-09-21T17:14:36;13.60;73.20
12452;DHT22;6291;48.924;12.204;2022-09-21T17:19:47;13.30;76.30
12452;DHT22;6291;48.924;12.204;2022-09-21T17:24:51;13.10;77.40
12452;DHT22;6291;48.924;12.204;2022-09-21T17:29:57;12.90;78.20
12452;DHT22;6291;48.924;12.204;2022-09-21T17:35:14;12.70;81.70
12452;DHT22;6291;48.924;12.204;2022-09-21T17:40:20;12.50;83.10
12452;DHT22;6291;48.924;12.204;2022-09-21T17:45:31;12.20;86.70
12452;DHT22;6291;48.924;12.204;2022-09-21T17:50:39;11.60;92.20
12452;DHT22;6291;48.924;12.204;2022-09-21T17:55:46;11.30;97.10
12452;DHT22;6291;48.924;12.204;2022-09-21T18:01:00;11.20;99.90
12452;DHT22;6291;48.924;12.204;2022-09-21T18:06:09;11.00;99.90
12452;DHT22;6291;48.924;12.204;2022-09-21T18:17:03;10.80;99.90
12452;DHT22;6291;48.924;12.204;2022-09-21T18:22:14;10.80;99.90
12452;DHT22;6291;48.924;12.204;2022-09-21T18:27:21;10.80;99.90
12452;DHT22;6291;48.924;12.204;2022-09-21T18:32:39;10.70;99.90
12452;DHT22;6291;48.924;12.204;2022-09-21T18:38:02;10.70;99.90
12452;DHT22;6291;48.924;12.204;2022-09-21T18:43:17;10.60;99.90
12452;DHT22;6291;48.924;12.204;2022-09-21T18:48:37;10.40;99.90
12452;DHT22;6291;48.924;12.204;2022-09-21T18:53:53;10.30;99.90
12452;DHT22;6291;48.924;12.204;2022-09-21T18:58:58;10.00;99.90
12452;DHT22;6291;48.924;12.204;2022-09-21T19:04:03;9.90;99.90
12452;DHT22;6291;48.924;12.204;2022-09-21T19:09:17;9.80;99.90
12452;DHT22;6291;48.924;12.204;2022-09-21T19:14:29;9.70;99.90
12452;DHT22;6291;48.924;12.204;2022-09-21T19:19:48;9.70;99.90
12452;DHT22;6291;48.924;12.204;2022-09-21T19:25:00;9.70;99.90
12452;DHT22;6291;48.924;12.204;2022-09-21T19:30:07;9.40;99.90
12452;DHT22;6291;48.924;12.204;2022-09-21T19:35:18;9.30;99.90
12452;DHT22;6291;48.924;12.204;2022-09-21T19:40:23;9.30;99.90
12452;DHT22;6291;48.924;12.204;2022-09-21T19:45:34;9.30;99.90
12452;DHT22;6291;48.924;12.204;2022-09-21T19:50:46;9.10;99.90
12452;DHT22;6291;48.924;12.204;2022-09-21T19:55:50;11.40;99.90
12452;DHT22;6291;48.924;12.204;2022-09-21T20:01:12;9.10;99.90
12452;DHT22;6291;48.924;12.204;2022-09-21T20:06:21;8.90;99.90
12452;DHT22;6291;48.924;12.204;2022-09-21T20:11:35;8.80;99.90
12452;DHT22;6291;48.924;12.204;2022-09-21T20:16:45;8.70;99.90
12452;DHT22;6291;48.924;12.204;2022-09-21T20:21:55;8.50;99.90
12452;DHT22;6291;48.924;12.204;2022-09-21T20:27:04;8.50;99.90
12452;DHT22;6291;48.924;12.204;2022-09-21T20:32:12;8.50;99.90
12452;DHT22;6291;48.924;12.204;2022-09-21T20:37:17;8.40;99.90
12452;DHT22;6291;48.924;12.204;2022-09-21T20:42:22;8.30;99.90
12452;DHT22;6291;48.924;12.204;2022-09-21T20:47:26;8.20;99.90
12452;DHT22;6291;48.924;12.204;2022-09-21T20:52:31;8.10;99.90
12452;DHT22;6291;48.924;12.204;2022-09-21T20:57:35;8.00;99.90
12452;DHT22;6291;48.924;12.204;2022-09-21T21:02:39;7.70;99.90
12452;DHT22;6291;48.924;12.204;2022-09-21T21:07:44;7.60;99.90
12452;DHT22;6291;48.924;12.204;2022-09-21T21:12:47;7.80;99.90
12452;DHT22;6291;48.924;12.204;2022-09-21T21:17:51;7.80;99.90
12452;DHT22;6291;48.924;12.204;2022-09-21T21:22:56;7.70;99.90
12452;DHT22;6291;48.924;12.204;2022-09-21T21:27:59;7.70;99.90
12452;DHT22;6291;48.924;12.204;2022-09-21T21:33:02;5.70;99.90
12452;DHT22;6291;48.924;12.204;2022-09-21T21:38:07;7.60;99.90
12452;DHT22;6291;48.924;12.204;2022-09-21T21:43:11;9.90;99.90
12452;DHT22;6291;48.924;12.204;2022-09-21T21:48:14;7.40;99.90
12452;DHT22;6291;48.924;12.204;2022-09-21T21:53:18;10.60;99.90
12452;DHT22;6291;48.924;12.204;2022-09-21T21:58:22;7.20;99.90
12452;DHT22;6291;48.924;12.204;2022-09-21T22:03:27;7.10;99.90
12452;DHT22;6291;48.924;12.204;2022-09-21T22:08:33;7.10;99.90
12452;DHT22;6291;48.924;12.204;2022-09-21T22:13:38;7.10;99.90
12452;DHT22;6291;48.924;12.204;2022-09-21T22:18:42;7.20;99.90
12452;DHT22;6291;48.924;12.204;2022-09-21T22:23:50;7.40;99.90
12452;DHT22;6291;48.924;12.204;2022-09-21T22:28:55;7.10;99.90
12452;DHT22;6291;48.924;12.204;2022-09-21T22:33:59;7.10;99.90
12452;DHT22;6291;48.924;12.204;2022-09-21T22:39:06;6.90;99.90
12452;DHT22;6291;48.924;12.204;2022-09-21T22:44:09;6.90;99.90
12452;DHT22;6291;48.924;12.204;2022-09-21T22:49:13;6.80;99.90
12452;DHT22;6291;48.924;12.204;2022-09-21T22:54:17;6.80;99.90
12452;DHT22;6291;48.924;12.204;2022-09-21T22:59:21;6.80;99.90
12452;DHT22;6291;48.924;12.204;2022-09-21T23:04:24;6.70;99.90
12452;DHT22;6291;48.924;12.204;2022-09-21T23:09:29;6.60;99.90
12452;DHT22;6291;48.924;12.204;2022-09-21T23:14:32;6.60;99.90
12452;DHT22;6291;48.924;12.204;2022-09-21T23:19:35;6.50;99.90
12452;DHT22;6291;48.924;12.204;2022-09-21T23:24:39;6.50;99.90
12452;DHT22;6291;48.924;12.204;2022-09-21T23:29:43;6.50;99.90
12452;DHT22;6291;48.924;12.204;2022-09-21T23:34:46;6.40;99.90
12452;DHT22;6291;48.924;12.204;2022-09-21T23:39:51;6.60;99.90
12452;DHT22;6291;48.924;12.204;2022-09-21T23:44:54;6.40;99.90
12452;DHT22;6291;48.924;12.204;2022-09-21T23:49:57;6.40;99.90
12452;DHT22;6291;48.924;12.204;2022-09-21T23:55:03;6.30;99.90
